sensor_id;sensor_type;location;lat;lon;timestamp;temperature;humidity
2763;DHT22;1389;51.490;7.338;2022-11-15T00:00:54;10.20;99.30
2763;DHT22;1389;51.490;7.338;2022-11-15T00:03:22;10.20;99.30
2763;DHT22;1389;51.490;7.338;2022-11-15T00:05:49;10.20;99.30
2763;DHT22;1389;51.490;7.338;2022-11-15T00:08:15;10.20;99.30
2763;DHT22;1389;51.490;7.338;2022-11-15T00:10:42;10.30;99.30
2763;DHT22;1389;51.490;7.338;2022-11-15T00:13:13;10.30;99.30
2763;DHT22;1389;51.490;7.338;2022-11-15T00:15:40;10.30;99.30
2763;DHT22;1389;51.490;7.338;2022-11-15T00:18:10;10.40;99.30
2763;DHT22;1389;51.490;7.338;2022-11-15T00:20:37;10.40;99.30
2763;DHT22;1389;51.490;7.338;2022-11-15T00:23:04;10.40;99.30
2763;DHT22;1389;51.490;7.338;2022-11-15T00:25:30;10.40;99.30
2763;DHT22;1389;51.490;7.338;2022-11-15T00:27:57;10.50;99.30
2763;DHT22;1389;51.490;7.338;2022-11-15T00:30:24;10.50;99.30
2763;DHT22;1389;51.490;7.338;2022-11-15T00:32:50;10.60;99.30
2763;DHT22;1389;51.490;7.338;2022-11-15T00:35:17;10.60;99.30
2763;DHT22;1389;51.490;7.338;2022-11-15T00:37:43;10.60;99.30
2763;DHT22;1389;51.490;7.338;2022-11-15T00:40:09;10.60;99.30
2763;DHT22;1389;51.490;7.338;2022-11-15T00:42:36;10.70;99.30
2763;DHT22;1389;51.490;7.338;2022-11-15T00:45:02;10.70;99.30
2763;DHT22;1389;51.490;7.338;2022-11-15T00:47:28;10.70;99.30
2763;DHT22;1389;51.490;7.338;2022-11-15T00:49:54;10.70;99.30
2763;DHT22;1389;51.490;7.338;2022-11-15T00:52:20;10.80;99.30
2763;DHT22;1389;51.490;7.338;2022-11-15T00:54:46;10.80;99.30
2763;DHT22;1389;51.490;7.338;2022-11-15T00:57:12;10.70;99.30
2763;DHT22;1389;51.490;7.338;2022-11-15T00:59:38;10.70;99.30
2763;DHT22;1389;51.490;7.338;2022-11-15T01:02:04;10.80;99.30
2763;DHT22;1389;51.490;7.338;2022-11-15T01:04:30;10.80;99.30
2763;DHT22;1389;51.490;7.338;2022-11-15T01:06:56;10.80;99.30
2763;DHT22;1389;51.490;7.338;2022-11-15T01:09:22;10.80;99.30
2763;DHT22;1389;51.490;7.338;2022-11-15T01:11:48;11.00;99.30
2763;DHT22;1389;51.490;7.338;2022-11-15T01:14:14;11.10;99.30
2763;DHT22;1389;51.490;7.338;2022-11-15T01:16:40;11.10;99.30
2763;DHT22;1389;51.490;7.338;2022-11-15T01:19:06;11.10;99.30
2763;DHT22;1389;51.490;7.338;2022-11-15T01:21:32;11.10;99.30
2763;DHT22;1389;51.490;7.338;2022-11-15T01:23:59;11.20;99.30
2763;DHT22;1389;51.490;7.338;2022-11-15T01:26:25;11.30;99.30
2763;DHT22;1389;51.490;7.338;2022-11-15T01:28:51;11.40;99.30
2763;DHT22;1389;51.490;7.338;2022-11-15T01:31:20;11.40;99.30
2763;DHT22;1389;51.490;7.338;2022-11-15T01:33:46;11.50;99.30
2763;DHT22;1389;51.490;7.338;2022-11-15T01:36:18;11.50;99.30
2763;DHT22;1389;51.490;7.338;2022-11-15T01:38:45;11.50;99.30
2763;DHT22;1389;51.490;7.338;2022-11-15T01:41:23;11.60;99.30
2763;DHT22;1389;51.490;7.338;2022-11-15T01:43:53;11.60;99.30
2763;DHT22;1389;51.490;7.338;2022-11-15T01:48:53;11.70;99.30
2763;DHT22;1389;51.490;7.338;2022-11-15T01:51:22;11.70;99.30
2763;DHT22;1389;51.490;7.338;2022-11-15T01:53:54;11.70;99.30
2763;DHT22;1389;51.490;7.338;2022-11-15T01:56:27;11.70;99.30
2763;DHT22;1389;51.490;7.338;2022-11-15T01:58:57;11.70;99.30
2763;DHT22;1389;51.490;7.338;2022-11-15T02:01:25;11.70;99.30
2763;DHT22;1389;51.490;7.338;2022-11-15T02:03:58;11.70;99.30
2763;DHT22;1389;51.490;7.338;2022-11-15T02:06:24;11.70;99.30
2763;DHT22;1389;51.490;7.338;2022-11-15T02:08:51;11.70;99.30
2763;DHT22;1389;51.490;7.338;2022-11-15T02:11:17;11.70;99.30
2763;DHT22;1389;51.490;7.338;2022-11-15T02:13:43;11.70;99.30
2763;DHT22;1389;51.490;7.338;2022-11-15T02:30:48;11.80;99.30
2763;DHT22;1389;51.490;7.338;2022-11-15T02:35:59;11.90;99.30
2763;DHT22;1389;51.490;7.338;2022-11-15T02:41:23;11.90;99.30
2763;DHT22;1389;51.490;7.338;2022-11-15T02:44:03;11.90;99.30
2763;DHT22;1389;51.490;7.338;2022-11-15T02:46:47;11.90;99.30
2763;DHT22;1389;51.490;7.338;2022-11-15T02:49:35;11.90;99.30
2763;DHT22;1389;51.490;7.338;2022-11-15T02:52:02;11.90;99.30
2763;DHT22;1389;51.490;7.338;2022-11-15T02:54:30;11.90;99.30
2763;DHT22;1389;51.490;7.338;2022-11-15T02:57:17;11.90;99.30
2763;DHT22;1389;51.490;7.338;2022-11-15T03:00:08;11.90;99.30
2763;DHT22;1389;51.490;7.338;2022-11-15T03:03:13;11.90;99.30
2763;DHT22;1389;51.490;7.338;2022-11-15T03:06:09;11.90;99.30
2763;DHT22;1389;51.490;7.338;2022-11-15T03:11:27;11.80;99.30
2763;DHT22;1389;51.490;7.338;2022-11-15T03:14:20;11.80;99.30
2763;DHT22;1389;51.490;7.338;2022-11-15T03:17:09;11.80;99.30
2763;DHT22;1389;51.490;7.338;2022-11-15T03:19:47;11.80;99.30
2763;DHT22;1389;51.490;7.338;2022-11-15T03:22:17;11.80;99.30
2763;DHT22;1389;51.490;7.338;2022-11-15T03:24:47;11.80;99.30
2763;DHT22;1389;51.490;7.338;2022-11-15T03:27:18;11.80;99.30
2763;DHT22;1389;51.490;7.338;2022-11-15T03:29:50;11.80;99.30
2763;DHT22;1389;51.490;7.338;2022-11-15T03:32:21;11.80;99.30
2763;DHT22;1389;51.490;7.338;2022-11-15T03:35:04;11.80;99.30
2763;DHT22;1389;51.490;7.338;2022-11-15T03:40:01;11.90;99.30
2763;DHT22;1389;51.490;7.338;2022-11-15T03:42:31;11.90;99.30
2763;DHT22;1389;51.490;7.338;2022-11-15T03:45:02;11.90;99.30
2763;DHT22;1389;51.490;7.338;2022-11-15T03:50:23;11.90;99.30
2763;DHT22;1389;51.490;7.338;2022-11-15T03:52:50;11.90;99.30
2763;DHT22;1389;51.490;7.338;2022-11-15T03:55:20;11.90;99.30
2763;DHT22;1389;51.490;7.338;2022-11-15T03:57:50;11.90;99.30
2763;DHT22;1389;51.490;7.338;2022-11-15T04:00:17;12.00;99.30
2763;DHT22;1389;51.490;7.338;2022-11-15T04:02:43;11.90;99.30
2763;DHT22;1389;51.490;7.338;2022-11-15T04:05:09;11.90;99.30
2763;DHT22;1389;51.490;7.338;2022-11-15T04:07:35;11.90;99.30
2763;DHT22;1389;51.490;7.338;2022-11-15T04:10:01;11.90;99.30
2763;DHT22;1389;51.490;7.338;2022-11-15T04:12:32;11.90;99.30
2763;DHT22;1389;51.490;7.338;2022-11-15T04:15:05;11.90;99.30
2763;DHT22;1389;51.490;7.338;2022-11-15T04:22:59;11.90;99.30
2763;DHT22;1389;51.490;7.338;2022-11-15T04:25:44;11.90;99.30
2763;DHT22;1389;51.490;7.338;2022-11-15T04:28:11;11.90;99.30
2763;DHT22;1389;51.490;7.338;2022-11-15T04:30:37;11.90;99.30
2763;DHT22;1389;51.490;7.338;2022-11-15T04:33:04;11.90;99.30
2763;DHT22;1389;51.490;7.338;2022-11-15T04:35:30;11.90;99.30
2763;DHT22;1389;51.490;7.338;2022-11-15T04:37:56;11.90;99.30
2763;DHT22;1389;51.490;7.338;2022-11-15T04:40:23;11.90;99.30
2763;DHT22;1389;51.490;7.338;2022-11-15T04:42:49;11.90;99.30
2763;DHT22;1389;51.490;7.338;2022-11-15T04:45:15;11.90;99.30
2763;DHT22;1389;51.490;7.338;2022-11-15T04:47:43;11.90;99.30
2763;DHT22;1389;51.490;7.338;2022-11-15T04:50:11;11.90;99.30
2763;DHT22;1389;51.490;7.338;2022-11-15T04:52:41;11.90;99.30
2763;DHT22;1389;51.490;7.338;2022-11-15T04:55:09;12.00;99.30
2763;DHT22;1389;51.490;7.338;2022-11-15T04:57:36;12.00;99.30
2763;DHT22;1389;51.490;7.338;2022-11-15T05:00:07;12.00;99.30
2763;DHT22;1389;51.490;7.338;2022-11-15T05:02:33;12.10;99.30
2763;DHT22;1389;51.490;7.338;2022-11-15T05:05:18;12.10;99.30
2763;DHT22;1389;51.490;7.338;2022-11-15T05:07:44;12.10;99.30
2763;DHT22;1389;51.490;7.338;2022-11-15T05:10:10;12.10;99.30
2763;DHT22;1389;51.490;7.338;2022-11-15T05:12:37;12.10;99.30
2763;DHT22;1389;51.490;7.338;2022-11-15T05:15:03;12.10;99.30
2763;DHT22;1389;51.490;7.338;2022-11-15T05:17:29;12.10;99.30
2763;DHT22;1389;51.490;7.338;2022-11-15T05:19:55;12.20;99.30
2763;DHT22;1389;51.490;7.338;2022-11-15T05:22:22;12.20;99.30
2763;DHT22;1389;51.490;7.338;2022-11-15T05:24:48;12.20;99.30
2763;DHT22;1389;51.490;7.338;2022-11-15T05:27:14;12.20;99.30
2763;DHT22;1389;51.490;7.338;2022-11-15T05:29:40;12.20;99.30
2763;DHT22;1389;51.490;7.338;2022-11-15T05:32:08;12.20;99.30
2763;DHT22;1389;51.490;7.338;2022-11-15T05:34:35;12.20;99.30
2763;DHT22;1389;51.490;7.338;2022-11-15T05:37:01;12.20;99.30
2763;DHT22;1389;51.490;7.338;2022-11-15T05:39:27;12.20;99.30
2763;DHT22;1389;51.490;7.338;2022-11-15T05:41:57;12.30;99.30
2763;DHT22;1389;51.490;7.338;2022-11-15T05:44:25;12.30;99.30
2763;DHT22;1389;51.490;7.338;2022-11-15T05:46:53;12.30;99.30
2763;DHT22;1389;51.490;7.338;2022-11-15T05:49:24;12.30;99.30
2763;DHT22;1389;51.490;7.338;2022-11-15T05:51:51;12.30;99.30
2763;DHT22;1389;51.490;7.338;2022-11-15T05:54:20;12.30;99.30
2763;DHT22;1389;51.490;7.338;2022-11-15T05:56:48;12.30;99.30
2763;DHT22;1389;51.490;7.338;2022-11-15T05:59:15;12.40;99.30
2763;DHT22;1389;51.490;7.338;2022-11-15T06:01:42;12.30;99.30
2763;DHT22;1389;51.490;7.338;2022-11-15T06:04:08;12.40;99.30
2763;DHT22;1389;51.490;7.338;2022-11-15T06:06:34;12.40;99.30
2763;DHT22;1389;51.490;7.338;2022-11-15T06:09:00;12.40;99.30
2763;DHT22;1389;51.490;7.338;2022-11-15T06:11:26;12.40;99.30
2763;DHT22;1389;51.490;7.338;2022-11-15T06:13:52;12.40;99.30
2763;DHT22;1389;51.490;7.338;2022-11-15T06:16:18;12.40;99.30
2763;DHT22;1389;51.490;7.338;2022-11-15T06:18:44;12.40;99.30
2763;DHT22;1389;51.490;7.338;2022-11-15T06:21:10;12.40;99.30
2763;DHT22;1389;51.490;7.338;2022-11-15T06:23:36;12.40;99.30
2763;DHT22;1389;51.490;7.338;2022-11-15T06:26:03;12.40;99.30
2763;DHT22;1389;51.490;7.338;2022-11-15T06:28:30;12.40;99.30
2763;DHT22;1389;51.490;7.338;2022-11-15T06:31:01;12.40;99.30
2763;DHT22;1389;51.490;7.338;2022-11-15T06:33:27;12.40;99.30
2763;DHT22;1389;51.490;7.338;2022-11-15T06:35:53;12.40;99.30
2763;DHT22;1389;51.490;7.338;2022-11-15T06:38:19;12.40;99.30
2763;DHT22;1389;51.490;7.338;2022-11-15T06:40:45;12.40;99.30
2763;DHT22;1389;51.490;7.338;2022-11-15T06:43:11;12.50;99.30
2763;DHT22;1389;51.490;7.338;2022-11-15T06:45:37;12.50;99.30
2763;DHT22;1389;51.490;7.338;2022-11-15T06:48:04;12.50;99.30
2763;DHT22;1389;51.490;7.338;2022-11-15T06:50:30;12.50;99.30
2763;DHT22;1389;51.490;7.338;2022-11-15T06:53:00;12.50;99.30
2763;DHT22;1389;51.490;7.338;2022-11-15T06:55:27;12.50;99.30
2763;DHT22;1389;51.490;7.338;2022-11-15T06:57:53;12.50;99.30
2763;DHT22;1389;51.490;7.338;2022-11-15T07:00:21;12.50;99.30
2763;DHT22;1389;51.490;7.338;2022-11-15T07:02:47;12.50;99.30
2763;DHT22;1389;51.490;7.338;2022-11-15T07:05:14;12.50;99.30
2763;DHT22;1389;51.490;7.338;2022-11-15T07:07:40;12.50;99.30
2763;DHT22;1389;51.490;7.338;2022-11-15T07:10:07;12.60;99.30
2763;DHT22;1389;51.490;7.338;2022-11-15T07:12:34;12.60;99.30
2763;DHT22;1389;51.490;7.338;2022-11-15T07:15:00;12.60;99.30
2763;DHT22;1389;51.490;7.338;2022-11-15T07:17:26;12.60;99.30
2763;DHT22;1389;51.490;7.338;2022-11-15T07:19:52;12.60;99.30
2763;DHT22;1389;51.490;7.338;2022-11-15T07:22:18;12.60;99.30
2763;DHT22;1389;51.490;7.338;2022-11-15T07:24:44;12.60;99.30
2763;DHT22;1389;51.490;7.338;2022-11-15T07:27:10;12.60;99.30
2763;DHT22;1389;51.490;7.338;2022-11-15T07:29:36;12.70;99.30
2763;DHT22;1389;51.490;7.338;2022-11-15T07:32:02;12.70;99.30
2763;DHT22;1389;51.490;7.338;2022-11-15T07:34:28;12.70;99.30
2763;DHT22;1389;51.490;7.338;2022-11-15T07:36:54;12.70;99.30
2763;DHT22;1389;51.490;7.338;2022-11-15T07:39:20;12.80;99.30
2763;DHT22;1389;51.490;7.338;2022-11-15T07:41:46;12.70;99.30
2763;DHT22;1389;51.490;7.338;2022-11-15T07:44:13;12.70;98.90
2763;DHT22;1389;51.490;7.338;2022-11-15T07:46:39;12.70;99.10
2763;DHT22;1389;51.490;7.338;2022-11-15T07:49:06;12.70;99.10
2763;DHT22;1389;51.490;7.338;2022-11-15T07:51:32;12.60;98.70
2763;DHT22;1389;51.490;7.338;2022-11-15T07:53:58;12.60;98.70
2763;DHT22;1389;51.490;7.338;2022-11-15T07:56:24;12.70;98.40
2763;DHT22;1389;51.490;7.338;2022-11-15T07:58:50;12.60;98.50
2763;DHT22;1389;51.490;7.338;2022-11-15T08:01:16;12.60;98.70
2763;DHT22;1389;51.490;7.338;2022-11-15T08:03:42;12.60;98.80
2763;DHT22;1389;51.490;7.338;2022-11-15T08:06:08;12.60;98.60
2763;DHT22;1389;51.490;7.338;2022-11-15T08:08:34;12.50;98.20
2763;DHT22;1389;51.490;7.338;2022-11-15T08:11:00;12.50;97.80
2763;DHT22;1389;51.490;7.338;2022-11-15T08:13:26;12.50;97.70
2763;DHT22;1389;51.490;7.338;2022-11-15T08:16:00;12.50;97.90
2763;DHT22;1389;51.490;7.338;2022-11-15T08:18:26;12.50;98.40
2763;DHT22;1389;51.490;7.338;2022-11-15T08:20:52;12.60;97.60
2763;DHT22;1389;51.490;7.338;2022-11-15T08:23:19;12.60;97.60
2763;DHT22;1389;51.490;7.338;2022-11-15T08:25:45;12.60;97.90
2763;DHT22;1389;51.490;7.338;2022-11-15T08:28:11;12.60;97.80
2763;DHT22;1389;51.490;7.338;2022-11-15T08:30:39;12.60;98.10
2763;DHT22;1389;51.490;7.338;2022-11-15T08:33:11;12.60;98.20
2763;DHT22;1389;51.490;7.338;2022-11-15T08:35:38;12.70;97.40
2763;DHT22;1389;51.490;7.338;2022-11-15T08:38:04;12.70;97.00
2763;DHT22;1389;51.490;7.338;2022-11-15T08:40:30;12.70;97.20
2763;DHT22;1389;51.490;7.338;2022-11-15T08:42:56;12.70;97.10
2763;DHT22;1389;51.490;7.338;2022-11-15T08:45:22;12.70;97.40
2763;DHT22;1389;51.490;7.338;2022-11-15T08:47:48;12.70;96.90
2763;DHT22;1389;51.490;7.338;2022-11-15T08:50:14;12.70;96.60
2763;DHT22;1389;51.490;7.338;2022-11-15T08:52:41;12.80;96.10
2763;DHT22;1389;51.490;7.338;2022-11-15T08:55:07;12.80;94.30
2763;DHT22;1389;51.490;7.338;2022-11-15T08:57:33;12.90;94.50
2763;DHT22;1389;51.490;7.338;2022-11-15T08:59:59;12.90;94.30
2763;DHT22;1389;51.490;7.338;2022-11-15T09:02:25;12.90;94.20
2763;DHT22;1389;51.490;7.338;2022-11-15T09:04:51;12.90;93.90
2763;DHT22;1389;51.490;7.338;2022-11-15T09:07:18;12.90;93.80
2763;DHT22;1389;51.490;7.338;2022-11-15T09:09:44;12.90;93.60
2763;DHT22;1389;51.490;7.338;2022-11-15T09:12:10;13.00;93.40
2763;DHT22;1389;51.490;7.338;2022-11-15T09:14:36;13.00;93.70
2763;DHT22;1389;51.490;7.338;2022-11-15T09:17:03;13.00;93.10
2763;DHT22;1389;51.490;7.338;2022-11-15T09:19:29;13.00;92.00
2763;DHT22;1389;51.490;7.338;2022-11-15T09:21:55;13.00;92.30
2763;DHT22;1389;51.490;7.338;2022-11-15T09:24:21;13.00;92.50
2763;DHT22;1389;51.490;7.338;2022-11-15T09:26:50;13.00;92.80
2763;DHT22;1389;51.490;7.338;2022-11-15T09:29:16;13.00;92.50
2763;DHT22;1389;51.490;7.338;2022-11-15T09:31:42;13.10;91.80
2763;DHT22;1389;51.490;7.338;2022-11-15T09:34:08;13.10;92.00
2763;DHT22;1389;51.490;7.338;2022-11-15T09:36:35;13.10;92.50
2763;DHT22;1389;51.490;7.338;2022-11-15T09:39:01;13.10;92.80
2763;DHT22;1389;51.490;7.338;2022-11-15T09:41:47;13.20;92.50
2763;DHT22;1389;51.490;7.338;2022-11-15T09:49:39;13.20;89.50
2763;DHT22;1389;51.490;7.338;2022-11-15T09:52:07;13.20;89.40
2763;DHT22;1389;51.490;7.338;2022-11-15T09:54:35;13.20;90.10
2763;DHT22;1389;51.490;7.338;2022-11-15T09:57:14;13.20;89.60
2763;DHT22;1389;51.490;7.338;2022-11-15T10:00:11;13.30;88.80
2763;DHT22;1389;51.490;7.338;2022-11-15T10:05:20;13.30;88.50
2763;DHT22;1389;51.490;7.338;2022-11-15T10:13:32;13.40;87.10
2763;DHT22;1389;51.490;7.338;2022-11-15T10:24:42;13.50;87.00
2763;DHT22;1389;51.490;7.338;2022-11-15T10:27:14;13.50;86.40
2763;DHT22;1389;51.490;7.338;2022-11-15T10:29:49;13.50;85.60
2763;DHT22;1389;51.490;7.338;2022-11-15T10:32:17;13.50;85.90
2763;DHT22;1389;51.490;7.338;2022-11-15T10:34:44;13.50;86.70
2763;DHT22;1389;51.490;7.338;2022-11-15T10:37:11;13.60;84.50
2763;DHT22;1389;51.490;7.338;2022-11-15T10:39:37;13.60;83.40
2763;DHT22;1389;51.490;7.338;2022-11-15T10:42:27;13.60;85.00
2763;DHT22;1389;51.490;7.338;2022-11-15T10:44:54;13.60;86.30
2763;DHT22;1389;51.490;7.338;2022-11-15T10:49:57;13.70;87.10
2763;DHT22;1389;51.490;7.338;2022-11-15T10:52:24;13.70;86.10
2763;DHT22;1389;51.490;7.338;2022-11-15T10:54:55;13.70;86.10
2763;DHT22;1389;51.490;7.338;2022-11-15T10:57:25;13.70;85.60
2763;DHT22;1389;51.490;7.338;2022-11-15T10:59:54;13.60;85.60
2763;DHT22;1389;51.490;7.338;2022-11-15T11:02:31;13.60;82.90
2763;DHT22;1389;51.490;7.338;2022-11-15T11:04:58;13.60;83.20
2763;DHT22;1389;51.490;7.338;2022-11-15T11:07:29;13.60;84.10
2763;DHT22;1389;51.490;7.338;2022-11-15T11:10:20;13.70;85.40
2763;DHT22;1389;51.490;7.338;2022-11-15T11:12:46;13.70;84.30
2763;DHT22;1389;51.490;7.338;2022-11-15T11:15:14;13.70;84.10
2763;DHT22;1389;51.490;7.338;2022-11-15T11:18:02;13.80;84.10
2763;DHT22;1389;51.490;7.338;2022-11-15T11:21:26;13.80;84.60
2763;DHT22;1389;51.490;7.338;2022-11-15T11:23:49;13.80;84.90
2763;DHT22;1389;51.490;7.338;2022-11-15T11:29:54;13.80;84.50
2763;DHT22;1389;51.490;7.338;2022-11-15T11:43:55;13.80;81.30
2763;DHT22;1389;51.490;7.338;2022-11-15T11:46:28;13.90;82.60
2763;DHT22;1389;51.490;7.338;2022-11-15T11:49:08;13.90;79.80
2763;DHT22;1389;51.490;7.338;2022-11-15T11:51:52;13.90;82.00
2763;DHT22;1389;51.490;7.338;2022-11-15T11:54:42;13.90;81.20
2763;DHT22;1389;51.490;7.338;2022-11-15T11:57:39;13.90;82.30
2763;DHT22;1389;51.490;7.338;2022-11-15T12:00:14;13.90;80.60
2763;DHT22;1389;51.490;7.338;2022-11-15T12:02:44;14.00;79.80
2763;DHT22;1389;51.490;7.338;2022-11-15T12:05:35;14.00;81.40
2763;DHT22;1389;51.490;7.338;2022-11-15T12:11:09;14.10;79.40
2763;DHT22;1389;51.490;7.338;2022-11-15T12:13:36;14.00;78.60
2763;DHT22;1389;51.490;7.338;2022-11-15T12:18:53;14.00;75.70
2763;DHT22;1389;51.490;7.338;2022-11-15T12:22:26;14.00;77.40
2763;DHT22;1389;51.490;7.338;2022-11-15T12:24:32;13.90;77.60
2763;DHT22;1389;51.490;7.338;2022-11-15T12:27:22;13.90;79.00
2763;DHT22;1389;51.490;7.338;2022-11-15T12:29:56;14.00;78.80
2763;DHT22;1389;51.490;7.338;2022-11-15T12:32:30;13.90;78.70
2763;DHT22;1389;51.490;7.338;2022-11-15T12:34:57;13.90;78.20
2763;DHT22;1389;51.490;7.338;2022-11-15T12:42:44;14.00;79.40
2763;DHT22;1389;51.490;7.338;2022-11-15T12:45:37;14.00;79.80
2763;DHT22;1389;51.490;7.338;2022-11-15T12:53:36;13.90;79.60
2763;DHT22;1389;51.490;7.338;2022-11-15T12:58:56;13.90;80.00
2763;DHT22;1389;51.490;7.338;2022-11-15T13:07:05;13.80;80.80
2763;DHT22;1389;51.490;7.338;2022-11-15T13:12:03;13.80;81.10
2763;DHT22;1389;51.490;7.338;2022-11-15T13:14:43;13.80;80.40
2763;DHT22;1389;51.490;7.338;2022-11-15T13:22:18;13.80;82.90
2763;DHT22;1389;51.490;7.338;2022-11-15T13:25:04;13.80;83.00
2763;DHT22;1389;51.490;7.338;2022-11-15T13:27:40;13.80;82.60
2763;DHT22;1389;51.490;7.338;2022-11-15T13:33:14;13.70;82.10
2763;DHT22;1389;51.490;7.338;2022-11-15T13:35:45;13.70;82.20
2763;DHT22;1389;51.490;7.338;2022-11-15T13:38:26;13.70;82.70
2763;DHT22;1389;51.490;7.338;2022-11-15T13:40:56;13.80;83.30
2763;DHT22;1389;51.490;7.338;2022-11-15T13:46:20;13.70;82.70
2763;DHT22;1389;51.490;7.338;2022-11-15T13:48:50;13.60;81.90
2763;DHT22;1389;51.490;7.338;2022-11-15T13:51:24;13.60;82.80
2763;DHT22;1389;51.490;7.338;2022-11-15T13:56:36;13.60;82.40
2763;DHT22;1389;51.490;7.338;2022-11-15T13:59:25;13.60;82.70
2763;DHT22;1389;51.490;7.338;2022-11-15T14:01:57;13.60;82.70
2763;DHT22;1389;51.490;7.338;2022-11-15T14:04:25;13.50;81.90
2763;DHT22;1389;51.490;7.338;2022-11-15T14:06:56;13.50;82.80
2763;DHT22;1389;51.490;7.338;2022-11-15T14:09:37;13.50;83.00
2763;DHT22;1389;51.490;7.338;2022-11-15T14:12:26;13.50;83.30
2763;DHT22;1389;51.490;7.338;2022-11-15T14:14:53;13.50;83.40
2763;DHT22;1389;51.490;7.338;2022-11-15T14:17:32;13.50;83.70
2763;DHT22;1389;51.490;7.338;2022-11-15T14:19:59;13.50;84.20
2763;DHT22;1389;51.490;7.338;2022-11-15T14:22:27;13.50;83.60
2763;DHT22;1389;51.490;7.338;2022-11-15T14:27:39;13.60;84.40
2763;DHT22;1389;51.490;7.338;2022-11-15T14:30:06;13.70;83.90
2763;DHT22;1389;51.490;7.338;2022-11-15T14:32:45;13.70;84.30
2763;DHT22;1389;51.490;7.338;2022-11-15T14:35:16;13.70;84.60
2763;DHT22;1389;51.490;7.338;2022-11-15T14:37:43;13.70;85.10
2763;DHT22;1389;51.490;7.338;2022-11-15T14:40:16;13.70;85.20
2763;DHT22;1389;51.490;7.338;2022-11-15T14:42:45;13.70;84.90
2763;DHT22;1389;51.490;7.338;2022-11-15T14:45:19;13.70;84.90
2763;DHT22;1389;51.490;7.338;2022-11-15T14:47:46;13.60;84.70
2763;DHT22;1389;51.490;7.338;2022-11-15T14:50:13;13.60;85.10
2763;DHT22;1389;51.490;7.338;2022-11-15T14:52:40;13.60;85.80
2763;DHT22;1389;51.490;7.338;2022-11-15T14:55:18;13.60;85.90
2763;DHT22;1389;51.490;7.338;2022-11-15T14:57:46;13.60;85.90
2763;DHT22;1389;51.490;7.338;2022-11-15T15:00:13;13.50;86.10
2763;DHT22;1389;51.490;7.338;2022-11-15T15:02:41;13.50;85.70
2763;DHT22;1389;51.490;7.338;2022-11-15T15:05:17;13.50;85.90
2763;DHT22;1389;51.490;7.338;2022-11-15T15:07:43;13.50;84.70
2763;DHT22;1389;51.490;7.338;2022-11-15T15:10:10;13.40;85.10
2763;DHT22;1389;51.490;7.338;2022-11-15T15:12:36;13.40;85.80
2763;DHT22;1389;51.490;7.338;2022-11-15T15:15:02;13.50;85.70
2763;DHT22;1389;51.490;7.338;2022-11-15T15:17:28;13.50;85.60
2763;DHT22;1389;51.490;7.338;2022-11-15T15:19:54;13.50;86.00
2763;DHT22;1389;51.490;7.338;2022-11-15T15:22:20;13.50;85.90
2763;DHT22;1389;51.490;7.338;2022-11-15T15:24:51;13.50;85.50
2763;DHT22;1389;51.490;7.338;2022-11-15T15:27:17;13.50;85.70
2763;DHT22;1389;51.490;7.338;2022-11-15T15:29:43;13.40;85.30
2763;DHT22;1389;51.490;7.338;2022-11-15T15:32:10;13.40;85.70
2763;DHT22;1389;51.490;7.338;2022-11-15T15:34:36;13.40;86.10
2763;DHT22;1389;51.490;7.338;2022-11-15T15:37:23;13.40;86.50
2763;DHT22;1389;51.490;7.338;2022-11-15T15:39:56;13.40;86.70
2763;DHT22;1389;51.490;7.338;2022-11-15T15:42:23;13.40;86.70
2763;DHT22;1389;51.490;7.338;2022-11-15T15:44:49;13.40;86.30
2763;DHT22;1389;51.490;7.338;2022-11-15T15:47:21;13.40;85.60
2763;DHT22;1389;51.490;7.338;2022-11-15T15:49:47;13.30;86.30
2763;DHT22;1389;51.490;7.338;2022-11-15T15:52:14;13.30;86.30
2763;DHT22;1389;51.490;7.338;2022-11-15T15:54:40;13.30;86.10
2763;DHT22;1389;51.490;7.338;2022-11-15T15:57:08;13.20;86.70
2763;DHT22;1389;51.490;7.338;2022-11-15T15:59:34;13.20;87.50
2763;DHT22;1389;51.490;7.338;2022-11-15T16:02:00;13.30;87.80
2763;DHT22;1389;51.490;7.338;2022-11-15T16:04:26;13.30;87.30
2763;DHT22;1389;51.490;7.338;2022-11-15T16:06:58;13.30;87.70
2763;DHT22;1389;51.490;7.338;2022-11-15T16:09:25;13.30;88.10
2763;DHT22;1389;51.490;7.338;2022-11-15T16:12:10;13.30;88.40
2763;DHT22;1389;51.490;7.338;2022-11-15T16:14:36;13.20;88.20
2763;DHT22;1389;51.490;7.338;2022-11-15T16:17:03;13.20;88.10
2763;DHT22;1389;51.490;7.338;2022-11-15T16:19:29;13.20;88.10
2763;DHT22;1389;51.490;7.338;2022-11-15T16:21:55;13.10;88.00
2763;DHT22;1389;51.490;7.338;2022-11-15T16:24:22;13.10;88.10
2763;DHT22;1389;51.490;7.338;2022-11-15T16:26:49;13.20;88.40
2763;DHT22;1389;51.490;7.338;2022-11-15T16:29:16;13.10;88.10
2763;DHT22;1389;51.490;7.338;2022-11-15T16:31:42;13.10;88.20
2763;DHT22;1389;51.490;7.338;2022-11-15T16:34:08;13.10;88.90
2763;DHT22;1389;51.490;7.338;2022-11-15T16:36:35;13.10;89.10
2763;DHT22;1389;51.490;7.338;2022-11-15T16:39:01;13.10;89.10
2763;DHT22;1389;51.490;7.338;2022-11-15T16:41:31;13.10;89.30
2763;DHT22;1389;51.490;7.338;2022-11-15T16:43:57;13.20;89.00
2763;DHT22;1389;51.490;7.338;2022-11-15T16:46:24;13.20;89.10
2763;DHT22;1389;51.490;7.338;2022-11-15T16:48:52;13.10;89.00
2763;DHT22;1389;51.490;7.338;2022-11-15T16:51:22;13.10;88.90
2763;DHT22;1389;51.490;7.338;2022-11-15T16:53:48;13.10;89.40
2763;DHT22;1389;51.490;7.338;2022-11-15T16:56:29;13.10;89.30
2763;DHT22;1389;51.490;7.338;2022-11-15T16:58:56;13.10;89.50
2763;DHT22;1389;51.490;7.338;2022-11-15T17:01:27;13.10;89.60
2763;DHT22;1389;51.490;7.338;2022-11-15T17:03:54;13.10;89.50
2763;DHT22;1389;51.490;7.338;2022-11-15T17:06:21;13.20;89.50
2763;DHT22;1389;51.490;7.338;2022-11-15T17:08:48;13.20;89.40
2763;DHT22;1389;51.490;7.338;2022-11-15T17:11:19;13.20;88.50
2763;DHT22;1389;51.490;7.338;2022-11-15T17:13:45;13.20;88.30
2763;DHT22;1389;51.490;7.338;2022-11-15T17:16:13;13.20;88.40
2763;DHT22;1389;51.490;7.338;2022-11-15T17:18:40;13.20;88.70
2763;DHT22;1389;51.490;7.338;2022-11-15T17:21:15;13.10;88.80
2763;DHT22;1389;51.490;7.338;2022-11-15T17:23:41;13.10;89.00
2763;DHT22;1389;51.490;7.338;2022-11-15T17:26:09;13.10;89.30
2763;DHT22;1389;51.490;7.338;2022-11-15T17:28:36;13.10;89.30
2763;DHT22;1389;51.490;7.338;2022-11-15T17:31:09;13.10;88.80
2763;DHT22;1389;51.490;7.338;2022-11-15T17:33:37;13.20;88.20
2763;DHT22;1389;51.490;7.338;2022-11-15T17:36:06;13.20;88.50
2763;DHT22;1389;51.490;7.338;2022-11-15T17:38:32;13.20;89.00
2763;DHT22;1389;51.490;7.338;2022-11-15T17:41:06;13.30;88.80
2763;DHT22;1389;51.490;7.338;2022-11-15T17:43:35;13.20;88.70
2763;DHT22;1389;51.490;7.338;2022-11-15T17:46:05;13.20;89.00
2763;DHT22;1389;51.490;7.338;2022-11-15T17:48:32;13.30;89.10
2763;DHT22;1389;51.490;7.338;2022-11-15T17:51:01;13.30;88.70
2763;DHT22;1389;51.490;7.338;2022-11-15T17:53:33;13.30;88.70
2763;DHT22;1389;51.490;7.338;2022-11-15T17:56:13;13.30;88.50
2763;DHT22;1389;51.490;7.338;2022-11-15T17:58:40;13.30;88.50
2763;DHT22;1389;51.490;7.338;2022-11-15T18:01:17;13.30;88.70
2763;DHT22;1389;51.490;7.338;2022-11-15T18:03:43;13.30;89.00
2763;DHT22;1389;51.490;7.338;2022-11-15T18:06:10;13.30;89.30
2763;DHT22;1389;51.490;7.338;2022-11-15T18:08:38;13.30;89.10
2763;DHT22;1389;51.490;7.338;2022-11-15T18:11:13;13.30;88.70
2763;DHT22;1389;51.490;7.338;2022-11-15T18:13:42;13.30;88.60
2763;DHT22;1389;51.490;7.338;2022-11-15T18:16:12;13.30;88.60
2763;DHT22;1389;51.490;7.338;2022-11-15T18:18:39;13.40;88.20